FWKI/LLW METAR and TAF weather

Enter ICAO airport designator
Station Type Date Time Source
FWKI METAR 2021/06/24 05:00 UTC NOAA

FWKI 240500Z VRB02KT 9999 NSC 10/09 Q1023 NOSIG


Station Type Date Time Source
FWKI Decoded METAR 2021/06/24 05:00 UTC NOAA

Lilongwe International Airport, Malawi (FWKI) 13-47S 033-46E 1229M
Jun 24, 2021 - 01:00 AM EDT / 2021.06.24 0500 UTC
Wind: Variable at 2 MPH (2 KT):0
Visibility: greater than 7 mile(s):0
Temperature: 50 F (10 C)
Dew Point: 48 F (9 C)
Relative Humidity: 93%
Pressure (altimeter): 30.21 in. Hg (1023 hPa)
ob: FWKI 240500Z VRB02KT 9999 NSC 10/09 Q1023 NOSIG
cycle: 5

Station Type Date Time Source
FWKI TAF 2021/06/24 06:12 UTC NOAA

TAF TAF FWKI 240400Z 2406/2512 16003KT CAVOK
BECMG 2406/2408 10005KT 9999 FEW020
BECMG 2411/2413 08007KT 9999 FEW025
FM241500 08009KT CAVOK
BECMG 2506/2508 10005KT 9999 FEW020

Example: see airport list